DIAP/ABJ METAR and TAF weather

Enter ICAO airport designator
Station Type Date Time Source
DIAP METAR 2018/12/13 15:00 UTC NOAA

DIAP 131500Z 19009KT 160V220 9000 FEW012 31/24 Q1011 NOSIG


Station Type Date Time Source
DIAP Decoded METAR 2018/12/13 15:00 UTC NOAA

Abidjan, Cote d'Ivoire (DIAP) 05-15N 003-56W 8M
Dec 13, 2018 - 10:00 AM EST / 2018.12.13 1500 UTC
Wind: from the S (190 degrees) at 10 MPH (9 KT) (direction variable):0
Visibility: 5 mile(s):0
Sky conditions: mostly clear
Temperature: 87 F (31 C)
Heat index: 95.7 F (35.4 C):1
Dew Point: 75 F (24 C)
Relative Humidity: 66%
Pressure (altimeter): 29.85 in. Hg (1011 hPa)
ob: DIAP 131500Z 19009KT 160V220 9000 FEW012 31/24 Q1011 NOSIG
cycle: 15

Station Type Date Time Source
DIAP TAF 2018/12/13 12:31 UTC NOAA

TAF DIAP 131100Z 1312/1418 20008KT 8000 SCT012
TEMPO 1312/1316 BKN012
TEMPO 1316/1322 4000 RA BKN012


Example: see airport list